sensor_id;sensor_type;location;lat;lon;timestamp;P1;durP1;ratioP1;P2;durP2;ratioP2
69989;SDS011;57331;52.054;5.294;2023-01-19T00:00:55;12.27;;;6.05;;
69989;SDS011;57331;52.054;5.294;2023-01-19T00:03:23;20.17;;;7.05;;
69989;SDS011;57331;52.054;5.294;2023-01-19T00:05:50;14.35;;;6.03;;
69989;SDS011;57331;52.054;5.294;2023-01-19T00:08:17;20.83;;;8.37;;
69989;SDS011;57331;52.054;5.294;2023-01-19T00:10:46;12.82;;;6.97;;
69989;SDS011;57331;52.054;5.294;2023-01-19T00:13:16;20.65;;;6.97;;
69989;SDS011;57331;52.054;5.294;2023-01-19T00:15:43;18.95;;;9.38;;
69989;SDS011;57331;52.054;5.294;2023-01-19T00:18:10;21.13;;;7.47;;
69989;SDS011;57331;52.054;5.294;2023-01-19T00:20:38;19.63;;;9.03;;
69989;SDS011;57331;52.054;5.294;2023-01-19T00:23:05;16.70;;;7.75;;
69989;SDS011;57331;52.054;5.294;2023-01-19T00:25:33;20.92;;;8.82;;
69989;SDS011;57331;52.054;5.294;2023-01-19T00:28:00;19.92;;;7.47;;
69989;SDS011;57331;52.054;5.294;2023-01-19T00:30:28;17.88;;;7.47;;
69989;SDS011;57331;52.054;5.294;2023-01-19T00:32:55;19.53;;;8.00;;
69989;SDS011;57331;52.054;5.294;2023-01-19T00:35:24;16.17;;;7.97;;
69989;SDS011;57331;52.054;5.294;2023-01-19T00:37:51;20.38;;;7.97;;
69989;SDS011;57331;52.054;5.294;2023-01-19T00:40:18;16.52;;;8.25;;
69989;SDS011;57331;52.054;5.294;2023-01-19T00:42:45;18.20;;;7.18;;
69989;SDS011;57331;52.054;5.294;2023-01-19T00:45:15;21.77;;;7.90;;
69989;SDS011;57331;52.054;5.294;2023-01-19T00:47:46;18.92;;;8.48;;
69989;SDS011;57331;52.054;5.294;2023-01-19T00:50:15;11.20;;;5.70;;
69989;SDS011;57331;52.054;5.294;2023-01-19T00:52:43;17.05;;;7.70;;
69989;SDS011;57331;52.054;5.294;2023-01-19T00:55:11;17.98;;;8.43;;
69989;SDS011;57331;52.054;5.294;2023-01-19T00:57:39;11.70;;;6.27;;
69989;SDS011;57331;52.054;5.294;2023-01-19T01:00:08;14.55;;;5.93;;
69989;SDS011;57331;52.054;5.294;2023-01-19T01:02:40;14.98;;;6.82;;
69989;SDS011;57331;52.054;5.294;2023-01-19T01:05:09;15.15;;;7.05;;
69989;SDS011;57331;52.054;5.294;2023-01-19T01:07:37;18.27;;;8.40;;
69989;SDS011;57331;52.054;5.294;2023-01-19T01:10:10;12.63;;;5.10;;
69989;SDS011;57331;52.054;5.294;2023-01-19T01:12:39;13.35;;;7.07;;
69989;SDS011;57331;52.054;5.294;2023-01-19T01:15:22;15.63;;;5.78;;
69989;SDS011;57331;52.054;5.294;2023-01-19T01:17:51;12.50;;;4.10;;
69989;SDS011;57331;52.054;5.294;2023-01-19T01:20:20;10.20;;;4.28;;
69989;SDS011;57331;52.054;5.294;2023-01-19T01:22:50;5.63;;;2.93;;
69989;SDS011;57331;52.054;5.294;2023-01-19T01:25:18;11.27;;;3.05;;
69989;SDS011;57331;52.054;5.294;2023-01-19T01:27:48;7.10;;;2.65;;
69989;SDS011;57331;52.054;5.294;2023-01-19T01:30:15;7.15;;;2.70;;
69989;SDS011;57331;52.054;5.294;2023-01-19T01:32:42;6.75;;;2.05;;
69989;SDS011;57331;52.054;5.294;2023-01-19T01:35:10;5.43;;;1.63;;
69989;SDS011;57331;52.054;5.294;2023-01-19T01:37:38;7.50;;;2.20;;
69989;SDS011;57331;52.054;5.294;2023-01-19T01:40:05;4.07;;;1.77;;
69989;SDS011;57331;52.054;5.294;2023-01-19T01:42:33;3.13;;;1.70;;
69989;SDS011;57331;52.054;5.294;2023-01-19T01:45:03;4.78;;;1.70;;
69989;SDS011;57331;52.054;5.294;2023-01-19T01:47:50;3.97;;;1.57;;
69989;SDS011;57331;52.054;5.294;2023-01-19T01:50:19;4.10;;;1.73;;
69989;SDS011;57331;52.054;5.294;2023-01-19T01:55:33;3.72;;;1.83;;
69989;SDS011;57331;52.054;5.294;2023-01-19T01:58:04;4.32;;;1.80;;
69989;SDS011;57331;52.054;5.294;2023-01-19T02:00:32;4.97;;;2.07;;
69989;SDS011;57331;52.054;5.294;2023-01-19T02:03:21;5.22;;;2.28;;
69989;SDS011;57331;52.054;5.294;2023-01-19T02:05:48;4.50;;;1.90;;
69989;SDS011;57331;52.054;5.294;2023-01-19T02:08:22;4.20;;;2.17;;
69989;SDS011;57331;52.054;5.294;2023-01-19T02:11:12;8.85;;;1.65;;
69989;SDS011;57331;52.054;5.294;2023-01-19T02:13:58;9.07;;;1.80;;
69989;SDS011;57331;52.054;5.294;2023-01-19T02:16:25;2.90;;;1.40;;
69989;SDS011;57331;52.054;5.294;2023-01-19T02:18:52;6.43;;;1.60;;
69989;SDS011;57331;52.054;5.294;2023-01-19T02:24:08;3.78;;;1.60;;
69989;SDS011;57331;52.054;5.294;2023-01-19T02:26:37;4.67;;;1.27;;
69989;SDS011;57331;52.054;5.294;2023-01-19T02:29:08;7.03;;;1.25;;
69989;SDS011;57331;52.054;5.294;2023-01-19T02:31:37;3.45;;;1.20;;
69989;SDS011;57331;52.054;5.294;2023-01-19T02:34:05;3.00;;;1.40;;
69989;SDS011;57331;52.054;5.294;2023-01-19T02:39:08;3.13;;;1.10;;
69989;SDS011;57331;52.054;5.294;2023-01-19T02:41:41;2.75;;;1.10;;
69989;SDS011;57331;52.054;5.294;2023-01-19T02:44:11;2.63;;;1.20;;
69989;SDS011;57331;52.054;5.294;2023-01-19T02:46:40;5.90;;;0.93;;
69989;SDS011;57331;52.054;5.294;2023-01-19T02:49:07;5.45;;;1.35;;
69989;SDS011;57331;52.054;5.294;2023-01-19T02:51:34;2.33;;;1.00;;
69989;SDS011;57331;52.054;5.294;2023-01-19T02:59:29;2.90;;;0.95;;
69989;SDS011;57331;52.054;5.294;2023-01-19T03:02:07;8.23;;;1.95;;
69989;SDS011;57331;52.054;5.294;2023-01-19T03:07:22;3.55;;;0.95;;
69989;SDS011;57331;52.054;5.294;2023-01-19T03:09:58;2.08;;;1.00;;
69989;SDS011;57331;52.054;5.294;2023-01-19T03:12:36;1.98;;;0.85;;
69989;SDS011;57331;52.054;5.294;2023-01-19T03:15:15;1.95;;;0.90;;
69989;SDS011;57331;52.054;5.294;2023-01-19T03:17:50;2.27;;;1.10;;
69989;SDS011;57331;52.054;5.294;2023-01-19T03:20:20;3.78;;;1.10;;
69989;SDS011;57331;52.054;5.294;2023-01-19T03:22:52;1.70;;;0.90;;
69989;SDS011;57331;52.054;5.294;2023-01-19T03:25:22;1.95;;;0.80;;
69989;SDS011;57331;52.054;5.294;2023-01-19T03:27:52;5.38;;;1.38;;
69989;SDS011;57331;52.054;5.294;2023-01-19T03:30:26;2.67;;;1.00;;
69989;SDS011;57331;52.054;5.294;2023-01-19T03:32:58;1.92;;;0.80;;
69989;SDS011;57331;52.054;5.294;2023-01-19T03:35:30;4.07;;;1.05;;
69989;SDS011;57331;52.054;5.294;2023-01-19T03:38:00;6.63;;;1.00;;
69989;SDS011;57331;52.054;5.294;2023-01-19T03:40:32;4.15;;;1.27;;
69989;SDS011;57331;52.054;5.294;2023-01-19T03:43:00;4.70;;;1.10;;
69989;SDS011;57331;52.054;5.294;2023-01-19T03:45:29;5.15;;;1.15;;
69989;SDS011;57331;52.054;5.294;2023-01-19T03:47:58;3.95;;;1.02;;
69989;SDS011;57331;52.054;5.294;2023-01-19T03:50:27;2.20;;;1.00;;
69989;SDS011;57331;52.054;5.294;2023-01-19T03:53:14;3.25;;;1.08;;
69989;SDS011;57331;52.054;5.294;2023-01-19T03:55:44;4.47;;;1.00;;
69989;SDS011;57331;52.054;5.294;2023-01-19T03:58:12;2.00;;;0.90;;
69989;SDS011;57331;52.054;5.294;2023-01-19T04:00:39;4.40;;;1.48;;
69989;SDS011;57331;52.054;5.294;2023-01-19T04:03:11;4.70;;;1.10;;
69989;SDS011;57331;52.054;5.294;2023-01-19T04:05:40;2.97;;;1.10;;
69989;SDS011;57331;52.054;5.294;2023-01-19T04:08:07;2.00;;;1.37;;
69989;SDS011;57331;52.054;5.294;2023-01-19T04:10:36;5.57;;;1.30;;
69989;SDS011;57331;52.054;5.294;2023-01-19T04:13:03;3.40;;;1.08;;
69989;SDS011;57331;52.054;5.294;2023-01-19T04:15:31;2.45;;;0.90;;
69989;SDS011;57331;52.054;5.294;2023-01-19T04:17:58;4.78;;;1.10;;
69989;SDS011;57331;52.054;5.294;2023-01-19T04:20:26;1.97;;;1.10;;
69989;SDS011;57331;52.054;5.294;2023-01-19T04:22:57;4.28;;;1.20;;
69989;SDS011;57331;52.054;5.294;2023-01-19T04:25:26;3.50;;;1.30;;
69989;SDS011;57331;52.054;5.294;2023-01-19T04:27:54;2.60;;;1.10;;
69989;SDS011;57331;52.054;5.294;2023-01-19T04:30:23;2.47;;;1.00;;
69989;SDS011;57331;52.054;5.294;2023-01-19T04:32:50;3.57;;;1.00;;
69989;SDS011;57331;52.054;5.294;2023-01-19T04:35:18;5.85;;;1.30;;
69989;SDS011;57331;52.054;5.294;2023-01-19T04:37:47;5.50;;;2.05;;
69989;SDS011;57331;52.054;5.294;2023-01-19T04:40:14;3.97;;;1.30;;
69989;SDS011;57331;52.054;5.294;2023-01-19T04:42:42;2.53;;;1.10;;
69989;SDS011;57331;52.054;5.294;2023-01-19T04:45:11;4.70;;;1.40;;
69989;SDS011;57331;52.054;5.294;2023-01-19T04:47:38;5.88;;;1.45;;
69989;SDS011;57331;52.054;5.294;2023-01-19T04:50:08;7.53;;;1.60;;
69989;SDS011;57331;52.054;5.294;2023-01-19T04:52:35;4.35;;;1.30;;
69989;SDS011;57331;52.054;5.294;2023-01-19T04:55:03;6.80;;;1.02;;
69989;SDS011;57331;52.054;5.294;2023-01-19T04:57:32;4.00;;;1.30;;
69989;SDS011;57331;52.054;5.294;2023-01-19T05:00:00;2.72;;;0.80;;
69989;SDS011;57331;52.054;5.294;2023-01-19T05:02:28;3.67;;;1.17;;
69989;SDS011;57331;52.054;5.294;2023-01-19T05:04:55;2.70;;;1.10;;
69989;SDS011;57331;52.054;5.294;2023-01-19T05:07:22;5.30;;;1.10;;
69989;SDS011;57331;52.054;5.294;2023-01-19T05:09:50;4.07;;;1.30;;
69989;SDS011;57331;52.054;5.294;2023-01-19T05:12:17;2.40;;;1.05;;
69989;SDS011;57331;52.054;5.294;2023-01-19T05:14:44;3.15;;;1.20;;
69989;SDS011;57331;52.054;5.294;2023-01-19T05:17:11;4.95;;;1.00;;
69989;SDS011;57331;52.054;5.294;2023-01-19T05:19:38;5.88;;;1.10;;
69989;SDS011;57331;52.054;5.294;2023-01-19T05:22:06;8.40;;;1.37;;
69989;SDS011;57331;52.054;5.294;2023-01-19T05:24:33;6.28;;;1.42;;
69989;SDS011;57331;52.054;5.294;2023-01-19T05:27:00;11.70;;;1.33;;
69989;SDS011;57331;52.054;5.294;2023-01-19T05:29:28;10.38;;;1.67;;
69989;SDS011;57331;52.054;5.294;2023-01-19T05:31:55;13.85;;;2.10;;
69989;SDS011;57331;52.054;5.294;2023-01-19T05:34:23;3.77;;;1.40;;
69989;SDS011;57331;52.054;5.294;2023-01-19T05:36:51;10.13;;;2.13;;
69989;SDS011;57331;52.054;5.294;2023-01-19T05:39:18;7.60;;;1.45;;
69989;SDS011;57331;52.054;5.294;2023-01-19T05:41:45;6.63;;;1.60;;
69989;SDS011;57331;52.054;5.294;2023-01-19T05:44:12;10.10;;;1.58;;
69989;SDS011;57331;52.054;5.294;2023-01-19T05:46:40;6.50;;;1.50;;
69989;SDS011;57331;52.054;5.294;2023-01-19T05:49:07;11.13;;;1.85;;
69989;SDS011;57331;52.054;5.294;2023-01-19T05:51:35;12.27;;;1.48;;
69989;SDS011;57331;52.054;5.294;2023-01-19T05:54:04;7.20;;;1.55;;
69989;SDS011;57331;52.054;5.294;2023-01-19T05:56:31;7.20;;;1.33;;
69989;SDS011;57331;52.054;5.294;2023-01-19T05:58:59;8.13;;;2.20;;
69989;SDS011;57331;52.054;5.294;2023-01-19T06:01:26;10.23;;;1.90;;
69989;SDS011;57331;52.054;5.294;2023-01-19T06:03:54;7.97;;;1.45;;
69989;SDS011;57331;52.054;5.294;2023-01-19T06:06:21;7.43;;;1.88;;
69989;SDS011;57331;52.054;5.294;2023-01-19T06:08:48;13.18;;;1.90;;
69989;SDS011;57331;52.054;5.294;2023-01-19T06:11:16;9.67;;;1.77;;
69989;SDS011;57331;52.054;5.294;2023-01-19T06:13:43;12.35;;;1.83;;
69989;SDS011;57331;52.054;5.294;2023-01-19T06:16:12;11.40;;;1.95;;
69989;SDS011;57331;52.054;5.294;2023-01-19T06:18:39;7.32;;;1.98;;
69989;SDS011;57331;52.054;5.294;2023-01-19T06:21:07;10.57;;;2.60;;
69989;SDS011;57331;52.054;5.294;2023-01-19T06:23:37;11.10;;;2.80;;
69989;SDS011;57331;52.054;5.294;2023-01-19T06:26:04;7.80;;;2.03;;
69989;SDS011;57331;52.054;5.294;2023-01-19T06:28:32;9.25;;;2.40;;
69989;SDS011;57331;52.054;5.294;2023-01-19T06:30:59;8.68;;;2.05;;
69989;SDS011;57331;52.054;5.294;2023-01-19T06:33:27;22.77;;;2.55;;
69989;SDS011;57331;52.054;5.294;2023-01-19T06:35:54;11.80;;;2.50;;
69989;SDS011;57331;52.054;5.294;2023-01-19T06:38:21;11.65;;;3.00;;
69989;SDS011;57331;52.054;5.294;2023-01-19T06:40:52;9.60;;;2.38;;
69989;SDS011;57331;52.054;5.294;2023-01-19T06:43:27;11.75;;;2.85;;
69989;SDS011;57331;52.054;5.294;2023-01-19T06:45:55;10.55;;;2.45;;
69989;SDS011;57331;52.054;5.294;2023-01-19T06:48:22;20.93;;;3.33;;
69989;SDS011;57331;52.054;5.294;2023-01-19T06:50:49;10.38;;;2.63;;
69989;SDS011;57331;52.054;5.294;2023-01-19T06:53:17;11.25;;;3.10;;
69989;SDS011;57331;52.054;5.294;2023-01-19T06:55:46;12.13;;;3.80;;
69989;SDS011;57331;52.054;5.294;2023-01-19T06:58:13;14.75;;;3.80;;
69989;SDS011;57331;52.054;5.294;2023-01-19T07:00:40;13.97;;;3.90;;
69989;SDS011;57331;52.054;5.294;2023-01-19T07:03:08;15.55;;;3.72;;
69989;SDS011;57331;52.054;5.294;2023-01-19T07:05:35;14.75;;;4.05;;
69989;SDS011;57331;52.054;5.294;2023-01-19T07:08:03;14.50;;;4.40;;
69989;SDS011;57331;52.054;5.294;2023-01-19T07:10:30;15.43;;;4.30;;
69989;SDS011;57331;52.054;5.294;2023-01-19T07:13:17;14.50;;;4.90;;
69989;SDS011;57331;52.054;5.294;2023-01-19T07:15:46;17.30;;;8.10;;
69989;SDS011;57331;52.054;5.294;2023-01-19T07:18:14;21.50;;;8.25;;
69989;SDS011;57331;52.054;5.294;2023-01-19T07:20:41;17.27;;;6.95;;
69989;SDS011;57331;52.054;5.294;2023-01-19T07:23:09;12.45;;;5.00;;
69989;SDS011;57331;52.054;5.294;2023-01-19T07:25:36;20.67;;;5.40;;
69989;SDS011;57331;52.054;5.294;2023-01-19T07:28:04;52.85;;;17.27;;
69989;SDS011;57331;52.054;5.294;2023-01-19T07:30:31;14.50;;;4.75;;
69989;SDS011;57331;52.054;5.294;2023-01-19T07:32:59;12.27;;;3.88;;
69989;SDS011;57331;52.054;5.294;2023-01-19T07:35:28;19.35;;;4.43;;
69989;SDS011;57331;52.054;5.294;2023-01-19T07:37:55;14.77;;;3.77;;
69989;SDS011;57331;52.054;5.294;2023-01-19T07:40:23;18.45;;;3.88;;
69989;SDS011;57331;52.054;5.294;2023-01-19T07:42:50;12.63;;;3.35;;
69989;SDS011;57331;52.054;5.294;2023-01-19T07:45:18;19.77;;;3.13;;
69989;SDS011;57331;52.054;5.294;2023-01-19T07:47:46;18.58;;;3.75;;
69989;SDS011;57331;52.054;5.294;2023-01-19T07:50:15;31.90;;;3.87;;
69989;SDS011;57331;52.054;5.294;2023-01-19T07:52:43;12.38;;;3.00;;
69989;SDS011;57331;52.054;5.294;2023-01-19T07:55:10;13.20;;;4.05;;
69989;SDS011;57331;52.054;5.294;2023-01-19T07:57:38;23.40;;;3.90;;
69989;SDS011;57331;52.054;5.294;2023-01-19T08:00:05;14.85;;;2.92;;
69989;SDS011;57331;52.054;5.294;2023-01-19T08:02:40;12.33;;;3.10;;
69989;SDS011;57331;52.054;5.294;2023-01-19T08:05:07;20.55;;;3.75;;
69989;SDS011;57331;52.054;5.294;2023-01-19T08:07:35;17.27;;;3.90;;
69989;SDS011;57331;52.054;5.294;2023-01-19T08:10:02;19.50;;;3.75;;
69989;SDS011;57331;52.054;5.294;2023-01-19T08:12:30;16.63;;;3.80;;
69989;SDS011;57331;52.054;5.294;2023-01-19T08:14:57;13.47;;;3.10;;
69989;SDS011;57331;52.054;5.294;2023-01-19T08:17:24;18.30;;;3.33;;
69989;SDS011;57331;52.054;5.294;2023-01-19T08:19:52;13.70;;;3.30;;
69989;SDS011;57331;52.054;5.294;2023-01-19T08:22:19;9.27;;;3.15;;
69989;SDS011;57331;52.054;5.294;2023-01-19T08:24:46;21.02;;;3.15;;
69989;SDS011;57331;52.054;5.294;2023-01-19T08:27:15;12.80;;;2.70;;
69989;SDS011;57331;52.054;5.294;2023-01-19T08:29:43;12.32;;;2.72;;
69989;SDS011;57331;52.054;5.294;2023-01-19T08:32:10;15.68;;;3.28;;
69989;SDS011;57331;52.054;5.294;2023-01-19T08:34:38;12.02;;;2.63;;
69989;SDS011;57331;52.054;5.294;2023-01-19T08:37:05;17.42;;;3.67;;
69989;SDS011;57331;52.054;5.294;2023-01-19T08:39:32;19.57;;;3.07;;
69989;SDS011;57331;52.054;5.294;2023-01-19T08:41:59;18.45;;;3.72;;
69989;SDS011;57331;52.054;5.294;2023-01-19T08:44:27;16.77;;;3.10;;
69989;SDS011;57331;52.054;5.294;2023-01-19T08:46:54;9.50;;;2.90;;
69989;SDS011;57331;52.054;5.294;2023-01-19T08:49:21;12.43;;;3.50;;
69989;SDS011;57331;52.054;5.294;2023-01-19T08:51:49;14.57;;;3.00;;
69989;SDS011;57331;52.054;5.294;2023-01-19T08:54:16;11.77;;;2.53;;
69989;SDS011;57331;52.054;5.294;2023-01-19T08:56:44;12.40;;;2.30;;
69989;SDS011;57331;52.054;5.294;2023-01-19T08:59:11;15.40;;;2.75;;
69989;SDS011;57331;52.054;5.294;2023-01-19T09:01:39;18.75;;;3.00;;
69989;SDS011;57331;52.054;5.294;2023-01-19T09:04:06;10.53;;;2.67;;
69989;SDS011;57331;52.054;5.294;2023-01-19T09:06:34;10.15;;;2.67;;
69989;SDS011;57331;52.054;5.294;2023-01-19T09:09:02;15.60;;;3.63;;
69989;SDS011;57331;52.054;5.294;2023-01-19T09:11:29;12.15;;;2.78;;
69989;SDS011;57331;52.054;5.294;2023-01-19T09:13:56;10.70;;;2.85;;
69989;SDS011;57331;52.054;5.294;2023-01-19T09:16:24;10.20;;;2.43;;
69989;SDS011;57331;52.054;5.294;2023-01-19T09:18:52;9.60;;;2.30;;
69989;SDS011;57331;52.054;5.294;2023-01-19T09:21:20;13.88;;;2.55;;
69989;SDS011;57331;52.054;5.294;2023-01-19T09:23:47;15.38;;;2.70;;
69989;SDS011;57331;52.054;5.294;2023-01-19T09:26:15;12.63;;;3.17;;
69989;SDS011;57331;52.054;5.294;2023-01-19T09:28:42;14.33;;;2.10;;
69989;SDS011;57331;52.054;5.294;2023-01-19T09:31:09;19.10;;;3.65;;
69989;SDS011;57331;52.054;5.294;2023-01-19T09:33:37;10.25;;;2.38;;
69989;SDS011;57331;52.054;5.294;2023-01-19T09:36:04;15.32;;;2.33;;
69989;SDS011;57331;52.054;5.294;2023-01-19T09:38:32;12.20;;;2.47;;
69989;SDS011;57331;52.054;5.294;2023-01-19T09:40:59;14.37;;;2.43;;
69989;SDS011;57331;52.054;5.294;2023-01-19T09:46:00;11.52;;;3.15;;
69989;SDS011;57331;52.054;5.294;2023-01-19T09:50:57;9.15;;;1.90;;
69989;SDS011;57331;52.054;5.294;2023-01-19T09:53:33;14.00;;;2.87;;
69989;SDS011;57331;52.054;5.294;2023-01-19T09:56:14;8.20;;;2.10;;
69989;SDS011;57331;52.054;5.294;2023-01-19T09:58:43;5.78;;;2.08;;
69989;SDS011;57331;52.054;5.294;2023-01-19T10:03:49;8.70;;;2.00;;
69989;SDS011;57331;52.054;5.294;2023-01-19T10:06:22;6.87;;;1.93;;
69989;SDS011;57331;52.054;5.294;2023-01-19T10:09:23;8.93;;;2.30;;
69989;SDS011;57331;52.054;5.294;2023-01-19T10:11:47;10.13;;;2.28;;
69989;SDS011;57331;52.054;5.294;2023-01-19T10:14:21;10.80;;;2.17;;
69989;SDS011;57331;52.054;5.294;2023-01-19T10:19:41;12.13;;;2.50;;
69989;SDS011;57331;52.054;5.294;2023-01-19T10:22:19;7.40;;;2.40;;
69989;SDS011;57331;52.054;5.294;2023-01-19T10:24:52;13.25;;;3.13;;
69989;SDS011;57331;52.054;5.294;2023-01-19T10:27:31;14.20;;;2.88;;
69989;SDS011;57331;52.054;5.294;2023-01-19T10:30:00;15.43;;;3.50;;
69989;SDS011;57331;52.054;5.294;2023-01-19T10:32:31;8.47;;;2.37;;
69989;SDS011;57331;52.054;5.294;2023-01-19T10:35:03;9.68;;;2.60;;
69989;SDS011;57331;52.054;5.294;2023-01-19T10:37:46;7.72;;;2.95;;
69989;SDS011;57331;52.054;5.294;2023-01-19T10:40:18;11.50;;;4.47;;
69989;SDS011;57331;52.054;5.294;2023-01-19T10:42:46;12.43;;;2.70;;
69989;SDS011;57331;52.054;5.294;2023-01-19T10:45:16;8.43;;;2.17;;
69989;SDS011;57331;52.054;5.294;2023-01-19T10:47:46;13.00;;;2.70;;
69989;SDS011;57331;52.054;5.294;2023-01-19T10:52:51;16.75;;;5.20;;
69989;SDS011;57331;52.054;5.294;2023-01-19T10:57:58;8.50;;;2.73;;
69989;SDS011;57331;52.054;5.294;2023-01-19T11:02:58;7.05;;;2.40;;
69989;SDS011;57331;52.054;5.294;2023-01-19T11:05:30;7.72;;;2.63;;
69989;SDS011;57331;52.054;5.294;2023-01-19T11:07:58;10.60;;;2.22;;
69989;SDS011;57331;52.054;5.294;2023-01-19T11:10:26;12.13;;;2.43;;
69989;SDS011;57331;52.054;5.294;2023-01-19T11:12:59;9.25;;;2.60;;
69989;SDS011;57331;52.054;5.294;2023-01-19T11:15:30;8.95;;;2.80;;
69989;SDS011;57331;52.054;5.294;2023-01-19T11:18:03;10.82;;;2.33;;
69989;SDS011;57331;52.054;5.294;2023-01-19T11:25:40;11.30;;;2.50;;
69989;SDS011;57331;52.054;5.294;2023-01-19T11:28:25;11.40;;;2.30;;
69989;SDS011;57331;52.054;5.294;2023-01-19T11:33:41;13.43;;;2.72;;
69989;SDS011;57331;52.054;5.294;2023-01-19T11:38:44;7.65;;;1.90;;
69989;SDS011;57331;52.054;5.294;2023-01-19T11:41:14;7.90;;;2.28;;
69989;SDS011;57331;52.054;5.294;2023-01-19T11:44:01;7.75;;;1.90;;
69989;SDS011;57331;52.054;5.294;2023-01-19T11:46:45;8.07;;;2.10;;
69989;SDS011;57331;52.054;5.294;2023-01-19T11:54:45;9.27;;;2.05;;
69989;SDS011;57331;52.054;5.294;2023-01-19T11:57:20;10.32;;;2.53;;
69989;SDS011;57331;52.054;5.294;2023-01-19T11:59:47;7.50;;;1.90;;
69989;SDS011;57331;52.054;5.294;2023-01-19T12:03:00;5.28;;;2.00;;
69989;SDS011;57331;52.054;5.294;2023-01-19T12:05:13;6.30;;;2.10;;
69989;SDS011;57331;52.054;5.294;2023-01-19T12:07:44;7.40;;;2.20;;
69989;SDS011;57331;52.054;5.294;2023-01-19T12:12:52;8.45;;;2.50;;
69989;SDS011;57331;52.054;5.294;2023-01-19T12:15:23;7.35;;;2.00;;
69989;SDS011;57331;52.054;5.294;2023-01-19T12:17:52;5.82;;;2.10;;
69989;SDS011;57331;52.054;5.294;2023-01-19T12:28:47;6.82;;;2.28;;
69989;SDS011;57331;52.054;5.294;2023-01-19T12:31:16;5.85;;;1.77;;
69989;SDS011;57331;52.054;5.294;2023-01-19T12:33:46;7.20;;;2.05;;
69989;SDS011;57331;52.054;5.294;2023-01-19T12:39:02;6.47;;;2.75;;
69989;SDS011;57331;52.054;5.294;2023-01-19T12:41:38;5.88;;;2.30;;
69989;SDS011;57331;52.054;5.294;2023-01-19T12:46:48;5.82;;;2.25;;
69989;SDS011;57331;52.054;5.294;2023-01-19T12:52:29;5.32;;;2.10;;
69989;SDS011;57331;52.054;5.294;2023-01-19T13:18:44;6.97;;;2.25;;
69989;SDS011;57331;52.054;5.294;2023-01-19T13:21:34;5.55;;;1.83;;
69989;SDS011;57331;52.054;5.294;2023-01-19T13:24:09;5.60;;;2.00;;
69989;SDS011;57331;52.054;5.294;2023-01-19T13:26:41;4.40;;;1.80;;
69989;SDS011;57331;52.054;5.294;2023-01-19T13:29:30;8.10;;;2.35;;
69989;SDS011;57331;52.054;5.294;2023-01-19T13:32:03;5.78;;;1.83;;
69989;SDS011;57331;52.054;5.294;2023-01-19T13:34:42;3.90;;;1.57;;
69989;SDS011;57331;52.054;5.294;2023-01-19T13:37:24;5.40;;;1.60;;
69989;SDS011;57331;52.054;5.294;2023-01-19T13:39:58;7.47;;;1.85;;
69989;SDS011;57331;52.054;5.294;2023-01-19T13:42:28;5.47;;;1.65;;
69989;SDS011;57331;52.054;5.294;2023-01-19T13:45:02;6.03;;;1.90;;
69989;SDS011;57331;52.054;5.294;2023-01-19T13:47:44;8.20;;;1.90;;
69989;SDS011;57331;52.054;5.294;2023-01-19T13:50:24;4.80;;;1.50;;
69989;SDS011;57331;52.054;5.294;2023-01-19T13:52:55;5.32;;;2.30;;
69989;SDS011;57331;52.054;5.294;2023-01-19T13:55:25;6.18;;;1.95;;
69989;SDS011;57331;52.054;5.294;2023-01-19T13:57:53;10.00;;;2.10;;
69989;SDS011;57331;52.054;5.294;2023-01-19T14:00:25;5.27;;;1.70;;
69989;SDS011;57331;52.054;5.294;2023-01-19T14:08:04;5.47;;;1.88;;
69989;SDS011;57331;52.054;5.294;2023-01-19T14:13:14;7.20;;;1.90;;
69989;SDS011;57331;52.054;5.294;2023-01-19T14:16:03;7.30;;;2.00;;
69989;SDS011;57331;52.054;5.294;2023-01-19T14:18:33;6.55;;;1.83;;
69989;SDS011;57331;52.054;5.294;2023-01-19T14:23:48;3.40;;;1.67;;
69989;SDS011;57331;52.054;5.294;2023-01-19T14:29:10;5.13;;;1.90;;
69989;SDS011;57331;52.054;5.294;2023-01-19T14:31:44;7.18;;;2.00;;
69989;SDS011;57331;52.054;5.294;2023-01-19T14:37:16;7.88;;;1.80;;
69989;SDS011;57331;52.054;5.294;2023-01-19T14:45:21;7.85;;;2.00;;
69989;SDS011;57331;52.054;5.294;2023-01-19T14:48:13;5.07;;;1.70;;
69989;SDS011;57331;52.054;5.294;2023-01-19T14:50:43;6.80;;;1.90;;
69989;SDS011;57331;52.054;5.294;2023-01-19T14:53:27;9.47;;;2.30;;
69989;SDS011;57331;52.054;5.294;2023-01-19T14:56:00;5.38;;;1.75;;
69989;SDS011;57331;52.054;5.294;2023-01-19T14:58:31;5.47;;;1.63;;
69989;SDS011;57331;52.054;5.294;2023-01-19T15:00:59;4.25;;;1.58;;
69989;SDS011;57331;52.054;5.294;2023-01-19T15:03:27;9.20;;;1.95;;
69989;SDS011;57331;52.054;5.294;2023-01-19T15:06:13;6.43;;;2.37;;
69989;SDS011;57331;52.054;5.294;2023-01-19T15:08:47;3.50;;;1.52;;
69989;SDS011;57331;52.054;5.294;2023-01-19T15:13:48;8.38;;;2.40;;
69989;SDS011;57331;52.054;5.294;2023-01-19T15:16:16;9.75;;;1.77;;
69989;SDS011;57331;52.054;5.294;2023-01-19T15:18:43;11.10;;;2.57;;
69989;SDS011;57331;52.054;5.294;2023-01-19T15:21:13;9.18;;;2.70;;
69989;SDS011;57331;52.054;5.294;2023-01-19T15:23:41;7.47;;;2.28;;
69989;SDS011;57331;52.054;5.294;2023-01-19T15:26:08;8.35;;;1.95;;
69989;SDS011;57331;52.054;5.294;2023-01-19T15:28:41;5.65;;;1.60;;
69989;SDS011;57331;52.054;5.294;2023-01-19T15:31:12;6.87;;;2.33;;
69989;SDS011;57331;52.054;5.294;2023-01-19T15:33:45;11.90;;;3.33;;
69989;SDS011;57331;52.054;5.294;2023-01-19T15:36:13;10.25;;;2.72;;
69989;SDS011;57331;52.054;5.294;2023-01-19T15:38:43;9.25;;;2.38;;
69989;SDS011;57331;52.054;5.294;2023-01-19T15:41:16;5.93;;;1.75;;
69989;SDS011;57331;52.054;5.294;2023-01-19T15:43:48;7.27;;;2.17;;
69989;SDS011;57331;52.054;5.294;2023-01-19T15:46:17;6.20;;;1.60;;
69989;SDS011;57331;52.054;5.294;2023-01-19T15:48:46;5.45;;;1.90;;
69989;SDS011;57331;52.054;5.294;2023-01-19T15:51:14;13.65;;;2.85;;
69989;SDS011;57331;52.054;5.294;2023-01-19T15:53:42;15.90;;;4.28;;
69989;SDS011;57331;52.054;5.294;2023-01-19T15:56:17;18.73;;;5.00;;
69989;SDS011;57331;52.054;5.294;2023-01-19T15:58:52;21.80;;;4.93;;
69989;SDS011;57331;52.054;5.294;2023-01-19T16:01:24;34.67;;;10.93;;
69989;SDS011;57331;52.054;5.294;2023-01-19T16:04:00;8.25;;;2.47;;
69989;SDS011;57331;52.054;5.294;2023-01-19T16:06:29;13.88;;;3.33;;
69989;SDS011;57331;52.054;5.294;2023-01-19T16:08:56;14.57;;;2.77;;
69989;SDS011;57331;52.054;5.294;2023-01-19T16:11:28;6.80;;;2.30;;
69989;SDS011;57331;52.054;5.294;2023-01-19T16:13:57;10.63;;;2.50;;
69989;SDS011;57331;52.054;5.294;2023-01-19T16:16:25;8.93;;;2.28;;
69989;SDS011;57331;52.054;5.294;2023-01-19T16:18:56;9.88;;;3.00;;
69989;SDS011;57331;52.054;5.294;2023-01-19T16:21:23;9.20;;;3.03;;
69989;SDS011;57331;52.054;5.294;2023-01-19T16:23:51;10.27;;;3.75;;
69989;SDS011;57331;52.054;5.294;2023-01-19T16:26:22;11.45;;;3.40;;
69989;SDS011;57331;52.054;5.294;2023-01-19T16:28:59;11.00;;;3.80;;
69989;SDS011;57331;52.054;5.294;2023-01-19T16:31:30;11.27;;;4.80;;
69989;SDS011;57331;52.054;5.294;2023-01-19T16:33:57;10.87;;;3.87;;
69989;SDS011;57331;52.054;5.294;2023-01-19T16:36:26;8.75;;;3.67;;
69989;SDS011;57331;52.054;5.294;2023-01-19T16:38:58;12.77;;;4.47;;
69989;SDS011;57331;52.054;5.294;2023-01-19T16:41:27;11.05;;;3.90;;
69989;SDS011;57331;52.054;5.294;2023-01-19T16:43:54;12.50;;;3.28;;
69989;SDS011;57331;52.054;5.294;2023-01-19T16:46:27;8.50;;;3.20;;
69989;SDS011;57331;52.054;5.294;2023-01-19T16:49:08;11.55;;;3.63;;
69989;SDS011;57331;52.054;5.294;2023-01-19T16:51:40;8.95;;;3.10;;
69989;SDS011;57331;52.054;5.294;2023-01-19T16:54:14;23.75;;;8.02;;
69989;SDS011;57331;52.054;5.294;2023-01-19T16:56:43;13.35;;;4.32;;